sensor_id;sensor_type;location;lat;lon;timestamp;P1;durP1;ratioP1;P2;durP2;ratioP2
60098;SDS011;62818;49.394;8.686;2023-05-07T00:00:23;2.90;;;1.57;;
60098;SDS011;62818;49.394;8.686;2023-05-07T00:01:24;3.40;;;1.10;;
60098;SDS011;62818;49.394;8.686;2023-05-07T00:02:26;2.60;;;1.20;;
60098;SDS011;62818;49.394;8.686;2023-05-07T00:03:26;1.83;;;1.30;;
60098;SDS011;62818;49.394;8.686;2023-05-07T00:04:27;2.60;;;1.37;;
60098;SDS011;62818;49.394;8.686;2023-05-07T00:05:28;3.60;;;1.40;;
60098;SDS011;62818;49.394;8.686;2023-05-07T00:06:29;3.23;;;1.37;;
60098;SDS011;62818;49.394;8.686;2023-05-07T00:07:29;3.75;;;1.40;;
60098;SDS011;62818;49.394;8.686;2023-05-07T00:08:30;1.53;;;1.17;;
60098;SDS011;62818;49.394;8.686;2023-05-07T00:09:30;1.93;;;1.33;;
60098;SDS011;62818;49.394;8.686;2023-05-07T00:10:31;3.63;;;1.50;;
60098;SDS011;62818;49.394;8.686;2023-05-07T00:11:32;6.50;;;1.47;;
60098;SDS011;62818;49.394;8.686;2023-05-07T00:12:33;2.47;;;1.30;;
60098;SDS011;62818;49.394;8.686;2023-05-07T00:13:33;3.17;;;1.43;;
60098;SDS011;62818;49.394;8.686;2023-05-07T00:15:36;1.83;;;1.08;;
60098;SDS011;62818;49.394;8.686;2023-05-07T00:16:36;1.23;;;1.10;;
60098;SDS011;62818;49.394;8.686;2023-05-07T00:17:37;2.90;;;1.30;;
60098;SDS011;62818;49.394;8.686;2023-05-07T00:18:37;3.07;;;1.00;;
60098;SDS011;62818;49.394;8.686;2023-05-07T00:19:38;1.20;;;1.10;;
60098;SDS011;62818;49.394;8.686;2023-05-07T00:20:38;3.53;;;1.20;;
60098;SDS011;62818;49.394;8.686;2023-05-07T00:21:39;5.60;;;1.70;;
60098;SDS011;62818;49.394;8.686;2023-05-07T00:22:39;3.43;;;1.50;;
60098;SDS011;62818;49.394;8.686;2023-05-07T00:23:40;3.40;;;1.60;;
60098;SDS011;62818;49.394;8.686;2023-05-07T00:24:40;3.73;;;1.60;;
60098;SDS011;62818;49.394;8.686;2023-05-07T00:25:41;2.27;;;1.60;;
60098;SDS011;62818;49.394;8.686;2023-05-07T00:26:41;4.53;;;1.97;;
60098;SDS011;62818;49.394;8.686;2023-05-07T00:27:42;2.53;;;1.50;;
60098;SDS011;62818;49.394;8.686;2023-05-07T00:28:42;3.30;;;1.50;;
60098;SDS011;62818;49.394;8.686;2023-05-07T00:29:43;6.07;;;1.70;;
60098;SDS011;62818;49.394;8.686;2023-05-07T00:30:43;6.20;;;1.47;;
60098;SDS011;62818;49.394;8.686;2023-05-07T00:31:44;1.47;;;1.10;;
60098;SDS011;62818;49.394;8.686;2023-05-07T00:32:44;4.57;;;1.20;;
60098;SDS011;62818;49.394;8.686;2023-05-07T00:33:45;2.58;;;1.42;;
60098;SDS011;62818;49.394;8.686;2023-05-07T00:34:46;3.08;;;1.30;;
60098;SDS011;62818;49.394;8.686;2023-05-07T00:35:47;6.77;;;1.40;;
60098;SDS011;62818;49.394;8.686;2023-05-07T00:36:48;2.20;;;1.05;;
60098;SDS011;62818;49.394;8.686;2023-05-07T00:37:48;2.70;;;1.40;;
60098;SDS011;62818;49.394;8.686;2023-05-07T00:38:49;3.83;;;1.20;;
60098;SDS011;62818;49.394;8.686;2023-05-07T00:39:50;1.10;;;0.97;;
60098;SDS011;62818;49.394;8.686;2023-05-07T00:40:50;4.20;;;1.10;;
60098;SDS011;62818;49.394;8.686;2023-05-07T00:41:51;3.80;;;1.00;;
60098;SDS011;62818;49.394;8.686;2023-05-07T00:42:52;1.77;;;1.10;;
60098;SDS011;62818;49.394;8.686;2023-05-07T00:43:56;2.08;;;1.00;;
60098;SDS011;62818;49.394;8.686;2023-05-07T00:44:58;2.90;;;1.50;;
60098;SDS011;62818;49.394;8.686;2023-05-07T00:45:59;1.33;;;0.90;;
60098;SDS011;62818;49.394;8.686;2023-05-07T00:46:59;3.10;;;1.10;;
60098;SDS011;62818;49.394;8.686;2023-05-07T00:48:03;3.80;;;1.17;;
60098;SDS011;62818;49.394;8.686;2023-05-07T00:49:04;4.47;;;1.38;;
60098;SDS011;62818;49.394;8.686;2023-05-07T00:50:06;1.10;;;0.90;;
60098;SDS011;62818;49.394;8.686;2023-05-07T00:51:09;3.03;;;1.20;;
60098;SDS011;62818;49.394;8.686;2023-05-07T00:52:12;4.50;;;1.15;;
60098;SDS011;62818;49.394;8.686;2023-05-07T00:53:16;1.92;;;0.95;;
60098;SDS011;62818;49.394;8.686;2023-05-07T00:54:17;0.90;;;0.90;;
60098;SDS011;62818;49.394;8.686;2023-05-07T00:55:18;2.28;;;0.82;;
60098;SDS011;62818;49.394;8.686;2023-05-07T00:56:19;1.40;;;1.00;;
60098;SDS011;62818;49.394;8.686;2023-05-07T00:57:22;2.05;;;1.00;;
60098;SDS011;62818;49.394;8.686;2023-05-07T00:58:25;1.30;;;0.90;;
60098;SDS011;62818;49.394;8.686;2023-05-07T00:59:25;1.83;;;1.00;;
60098;SDS011;62818;49.394;8.686;2023-05-07T01:00:27;2.10;;;1.00;;
60098;SDS011;62818;49.394;8.686;2023-05-07T01:01:28;2.65;;;1.20;;
60098;SDS011;62818;49.394;8.686;2023-05-07T01:02:28;4.07;;;1.13;;
60098;SDS011;62818;49.394;8.686;2023-05-07T01:03:29;1.80;;;0.87;;
60098;SDS011;62818;49.394;8.686;2023-05-07T01:04:29;1.80;;;0.90;;
60098;SDS011;62818;49.394;8.686;2023-05-07T01:05:30;2.33;;;1.20;;
60098;SDS011;62818;49.394;8.686;2023-05-07T01:06:31;5.13;;;1.20;;
60098;SDS011;62818;49.394;8.686;2023-05-07T01:07:33;2.38;;;0.98;;
60098;SDS011;62818;49.394;8.686;2023-05-07T01:08:36;2.45;;;0.80;;
60098;SDS011;62818;49.394;8.686;2023-05-07T01:09:39;1.83;;;0.88;;
60098;SDS011;62818;49.394;8.686;2023-05-07T01:10:40;1.55;;;0.93;;
60098;SDS011;62818;49.394;8.686;2023-05-07T01:11:43;2.45;;;1.10;;
60098;SDS011;62818;49.394;8.686;2023-05-07T01:12:44;1.17;;;0.80;;
60098;SDS011;62818;49.394;8.686;2023-05-07T01:14:07;4.20;;;0.98;;
60098;SDS011;62818;49.394;8.686;2023-05-07T01:15:09;2.15;;;0.80;;
60098;SDS011;62818;49.394;8.686;2023-05-07T01:16:10;1.85;;;0.80;;
60098;SDS011;62818;49.394;8.686;2023-05-07T01:17:11;2.80;;;2.00;;
60098;SDS011;62818;49.394;8.686;2023-05-07T01:18:11;3.60;;;2.17;;
60098;SDS011;62818;49.394;8.686;2023-05-07T01:19:12;1.53;;;1.00;;
60098;SDS011;62818;49.394;8.686;2023-05-07T01:20:16;7.82;;;1.40;;
60098;SDS011;62818;49.394;8.686;2023-05-07T01:21:18;1.95;;;1.25;;
60098;SDS011;62818;49.394;8.686;2023-05-07T01:22:35;3.63;;;1.20;;
60098;SDS011;62818;49.394;8.686;2023-05-07T01:24:39;3.65;;;0.98;;
60098;SDS011;62818;49.394;8.686;2023-05-07T01:25:40;2.92;;;1.00;;
60098;SDS011;62818;49.394;8.686;2023-05-07T01:26:41;3.80;;;2.60;;
60098;SDS011;62818;49.394;8.686;2023-05-07T01:27:44;2.75;;;2.20;;
60098;SDS011;62818;49.394;8.686;2023-05-07T01:28:45;1.63;;;1.00;;
60098;SDS011;62818;49.394;8.686;2023-05-07T01:29:45;2.67;;;1.15;;
60098;SDS011;62818;49.394;8.686;2023-05-07T01:30:46;2.07;;;0.73;;
60098;SDS011;62818;49.394;8.686;2023-05-07T01:31:52;1.98;;;1.05;;
60098;SDS011;62818;49.394;8.686;2023-05-07T01:32:56;1.33;;;0.95;;
60098;SDS011;62818;49.394;8.686;2023-05-07T01:34:04;3.07;;;1.37;;
60098;SDS011;62818;49.394;8.686;2023-05-07T01:35:12;2.85;;;1.23;;
60098;SDS011;62818;49.394;8.686;2023-05-07T01:36:20;1.73;;;1.00;;
60098;SDS011;62818;49.394;8.686;2023-05-07T01:37:25;1.52;;;1.00;;
60098;SDS011;62818;49.394;8.686;2023-05-07T01:38:27;5.53;;;1.00;;
60098;SDS011;62818;49.394;8.686;2023-05-07T01:39:29;1.55;;;1.25;;
60098;SDS011;62818;49.394;8.686;2023-05-07T01:40:30;1.85;;;0.82;;
60098;SDS011;62818;49.394;8.686;2023-05-07T01:41:31;1.92;;;1.00;;
60098;SDS011;62818;49.394;8.686;2023-05-07T01:42:32;1.47;;;0.70;;
60098;SDS011;62818;49.394;8.686;2023-05-07T01:43:33;0.70;;;0.70;;
60098;SDS011;62818;49.394;8.686;2023-05-07T01:44:34;4.77;;;1.23;;
60098;SDS011;62818;49.394;8.686;2023-05-07T01:45:34;2.43;;;1.00;;
60098;SDS011;62818;49.394;8.686;2023-05-07T01:46:35;1.13;;;0.68;;
60098;SDS011;62818;49.394;8.686;2023-05-07T01:47:36;3.53;;;0.80;;
60098;SDS011;62818;49.394;8.686;2023-05-07T01:48:37;2.40;;;1.00;;
60098;SDS011;62818;49.394;8.686;2023-05-07T01:49:39;3.15;;;0.88;;
60098;SDS011;62818;49.394;8.686;2023-05-07T01:51:42;3.20;;;0.80;;
60098;SDS011;62818;49.394;8.686;2023-05-07T01:52:44;1.42;;;0.95;;
60098;SDS011;62818;49.394;8.686;2023-05-07T01:53:44;3.67;;;1.00;;
60098;SDS011;62818;49.394;8.686;2023-05-07T01:54:47;5.72;;;1.13;;
60098;SDS011;62818;49.394;8.686;2023-05-07T01:55:48;1.20;;;0.87;;
60098;SDS011;62818;49.394;8.686;2023-05-07T01:56:48;1.47;;;0.77;;
60098;SDS011;62818;49.394;8.686;2023-05-07T01:57:49;2.22;;;1.38;;
60098;SDS011;62818;49.394;8.686;2023-05-07T01:58:50;3.50;;;0.90;;
60098;SDS011;62818;49.394;8.686;2023-05-07T01:59:51;1.92;;;0.80;;
60098;SDS011;62818;49.394;8.686;2023-05-07T02:00:52;1.80;;;0.80;;
60098;SDS011;62818;49.394;8.686;2023-05-07T02:01:52;1.47;;;0.70;;
60098;SDS011;62818;49.394;8.686;2023-05-07T02:02:53;2.83;;;1.13;;
60098;SDS011;62818;49.394;8.686;2023-05-07T02:03:53;1.73;;;0.80;;
60098;SDS011;62818;49.394;8.686;2023-05-07T02:04:54;3.72;;;0.75;;
60098;SDS011;62818;49.394;8.686;2023-05-07T02:05:55;1.57;;;0.97;;
60098;SDS011;62818;49.394;8.686;2023-05-07T02:06:55;3.00;;;1.10;;
60098;SDS011;62818;49.394;8.686;2023-05-07T02:07:56;2.40;;;0.97;;
60098;SDS011;62818;49.394;8.686;2023-05-07T02:08:56;1.73;;;0.90;;
60098;SDS011;62818;49.394;8.686;2023-05-07T02:09:57;1.67;;;1.00;;
60098;SDS011;62818;49.394;8.686;2023-05-07T02:10:57;3.73;;;1.03;;
60098;SDS011;62818;49.394;8.686;2023-05-07T02:11:58;4.10;;;1.27;;
60098;SDS011;62818;49.394;8.686;2023-05-07T02:12:58;1.50;;;0.83;;
60098;SDS011;62818;49.394;8.686;2023-05-07T02:14:01;1.05;;;0.65;;
60098;SDS011;62818;49.394;8.686;2023-05-07T02:15:02;1.70;;;0.87;;
60098;SDS011;62818;49.394;8.686;2023-05-07T02:16:03;4.45;;;1.00;;
60098;SDS011;62818;49.394;8.686;2023-05-07T02:17:04;2.42;;;0.73;;
60098;SDS011;62818;49.394;8.686;2023-05-07T02:18:05;2.58;;;1.08;;
60098;SDS011;62818;49.394;8.686;2023-05-07T02:19:08;2.58;;;0.90;;
60098;SDS011;62818;49.394;8.686;2023-05-07T02:20:09;2.60;;;1.10;;
60098;SDS011;62818;49.394;8.686;2023-05-07T02:21:13;4.47;;;0.80;;
60098;SDS011;62818;49.394;8.686;2023-05-07T02:22:13;1.07;;;0.83;;
60098;SDS011;62818;49.394;8.686;2023-05-07T02:23:14;5.23;;;0.97;;
60098;SDS011;62818;49.394;8.686;2023-05-07T02:24:14;2.07;;;0.80;;
60098;SDS011;62818;49.394;8.686;2023-05-07T02:25:15;0.90;;;0.70;;
60098;SDS011;62818;49.394;8.686;2023-05-07T02:26:15;1.67;;;0.80;;
60098;SDS011;62818;49.394;8.686;2023-05-07T02:27:16;1.00;;;0.77;;
60098;SDS011;62818;49.394;8.686;2023-05-07T02:28:16;3.07;;;0.90;;
60098;SDS011;62818;49.394;8.686;2023-05-07T02:29:17;1.00;;;0.80;;
60098;SDS011;62818;49.394;8.686;2023-05-07T02:30:17;2.33;;;0.90;;
60098;SDS011;62818;49.394;8.686;2023-05-07T02:31:18;3.20;;;1.17;;
60098;SDS011;62818;49.394;8.686;2023-05-07T02:32:18;1.60;;;1.03;;
60098;SDS011;62818;49.394;8.686;2023-05-07T02:33:19;4.00;;;1.15;;
60098;SDS011;62818;49.394;8.686;2023-05-07T02:34:20;1.27;;;0.83;;
60098;SDS011;62818;49.394;8.686;2023-05-07T02:35:21;3.05;;;0.95;;
60098;SDS011;62818;49.394;8.686;2023-05-07T02:36:21;2.37;;;0.93;;
60098;SDS011;62818;49.394;8.686;2023-05-07T02:37:21;3.77;;;0.80;;
60098;SDS011;62818;49.394;8.686;2023-05-07T02:38:22;1.20;;;0.80;;
60098;SDS011;62818;49.394;8.686;2023-05-07T02:39:23;6.10;;;1.10;;
60098;SDS011;62818;49.394;8.686;2023-05-07T02:40:23;3.77;;;0.80;;
60098;SDS011;62818;49.394;8.686;2023-05-07T02:41:24;4.93;;;0.90;;
60098;SDS011;62818;49.394;8.686;2023-05-07T02:42:25;2.27;;;1.07;;
60098;SDS011;62818;49.394;8.686;2023-05-07T02:43:25;1.87;;;0.73;;
60098;SDS011;62818;49.394;8.686;2023-05-07T02:44:25;3.73;;;1.03;;
60098;SDS011;62818;49.394;8.686;2023-05-07T02:45:26;1.93;;;1.00;;
60098;SDS011;62818;49.394;8.686;2023-05-07T02:46:26;3.00;;;1.07;;
60098;SDS011;62818;49.394;8.686;2023-05-07T02:47:27;2.67;;;0.97;;
60098;SDS011;62818;49.394;8.686;2023-05-07T02:48:28;1.08;;;0.98;;
60098;SDS011;62818;49.394;8.686;2023-05-07T02:49:29;2.75;;;1.75;;
60098;SDS011;62818;49.394;8.686;2023-05-07T02:50:29;5.63;;;2.93;;
60098;SDS011;62818;49.394;8.686;2023-05-07T02:51:30;1.63;;;1.10;;
60098;SDS011;62818;49.394;8.686;2023-05-07T02:52:31;4.13;;;2.10;;
60098;SDS011;62818;49.394;8.686;2023-05-07T02:53:32;3.50;;;1.10;;
60098;SDS011;62818;49.394;8.686;2023-05-07T02:54:32;1.38;;;0.98;;
60098;SDS011;62818;49.394;8.686;2023-05-07T02:55:33;4.23;;;1.20;;
60098;SDS011;62818;49.394;8.686;2023-05-07T02:56:33;2.27;;;1.00;;
60098;SDS011;62818;49.394;8.686;2023-05-07T02:57:34;1.83;;;1.10;;
60098;SDS011;62818;49.394;8.686;2023-05-07T02:58:34;1.80;;;0.80;;
60098;SDS011;62818;49.394;8.686;2023-05-07T02:59:39;2.35;;;0.80;;
60098;SDS011;62818;49.394;8.686;2023-05-07T03:00:39;1.67;;;0.90;;
60098;SDS011;62818;49.394;8.686;2023-05-07T03:01:40;3.13;;;1.07;;
60098;SDS011;62818;49.394;8.686;2023-05-07T03:02:44;2.55;;;1.10;;
60098;SDS011;62818;49.394;8.686;2023-05-07T03:03:45;4.90;;;1.10;;
60098;SDS011;62818;49.394;8.686;2023-05-07T03:04:48;2.78;;;1.17;;
60098;SDS011;62818;49.394;8.686;2023-05-07T03:05:49;2.10;;;0.90;;
60098;SDS011;62818;49.394;8.686;2023-05-07T03:06:49;2.47;;;1.07;;
60098;SDS011;62818;49.394;8.686;2023-05-07T03:07:49;3.47;;;0.90;;
60098;SDS011;62818;49.394;8.686;2023-05-07T03:08:50;2.27;;;1.10;;
60098;SDS011;62818;49.394;8.686;2023-05-07T03:09:50;1.97;;;1.10;;
60098;SDS011;62818;49.394;8.686;2023-05-07T03:10:51;4.20;;;1.07;;
60098;SDS011;62818;49.394;8.686;2023-05-07T03:11:52;2.17;;;1.10;;
60098;SDS011;62818;49.394;8.686;2023-05-07T03:12:52;2.10;;;1.00;;
60098;SDS011;62818;49.394;8.686;2023-05-07T03:13:53;3.70;;;1.13;;
60098;SDS011;62818;49.394;8.686;2023-05-07T03:14:53;1.53;;;1.30;;
60098;SDS011;62818;49.394;8.686;2023-05-07T03:15:57;2.57;;;0.97;;
60098;SDS011;62818;49.394;8.686;2023-05-07T03:16:57;2.85;;;0.93;;
60098;SDS011;62818;49.394;8.686;2023-05-07T03:17:58;2.73;;;1.10;;
60098;SDS011;62818;49.394;8.686;2023-05-07T03:18:58;1.97;;;1.00;;
60098;SDS011;62818;49.394;8.686;2023-05-07T03:19:58;2.80;;;1.10;;
60098;SDS011;62818;49.394;8.686;2023-05-07T03:20:59;3.40;;;1.20;;
60098;SDS011;62818;49.394;8.686;2023-05-07T03:22:00;1.90;;;0.87;;
60098;SDS011;62818;49.394;8.686;2023-05-07T03:23:00;2.40;;;1.17;;
60098;SDS011;62818;49.394;8.686;2023-05-07T03:24:03;1.77;;;1.15;;
60098;SDS011;62818;49.394;8.686;2023-05-07T03:25:05;2.38;;;1.38;;
60098;SDS011;62818;49.394;8.686;2023-05-07T03:26:07;1.75;;;1.00;;
60098;SDS011;62818;49.394;8.686;2023-05-07T03:27:10;2.67;;;1.00;;
60098;SDS011;62818;49.394;8.686;2023-05-07T03:28:10;1.27;;;1.17;;
60098;SDS011;62818;49.394;8.686;2023-05-07T03:29:11;3.97;;;1.20;;
60098;SDS011;62818;49.394;8.686;2023-05-07T03:30:11;2.33;;;1.03;;
60098;SDS011;62818;49.394;8.686;2023-05-07T03:31:12;1.83;;;1.23;;
60098;SDS011;62818;49.394;8.686;2023-05-07T03:32:13;2.30;;;1.37;;
60098;SDS011;62818;49.394;8.686;2023-05-07T03:33:14;2.35;;;1.40;;
60098;SDS011;62818;49.394;8.686;2023-05-07T03:34:15;2.58;;;1.30;;
60098;SDS011;62818;49.394;8.686;2023-05-07T03:36:20;2.22;;;1.15;;
60098;SDS011;62818;49.394;8.686;2023-05-07T03:37:21;3.33;;;1.10;;
60098;SDS011;62818;49.394;8.686;2023-05-07T03:38:22;1.70;;;1.10;;
60098;SDS011;62818;49.394;8.686;2023-05-07T03:39:22;3.63;;;1.27;;
60098;SDS011;62818;49.394;8.686;2023-05-07T03:40:23;1.67;;;1.40;;
60098;SDS011;62818;49.394;8.686;2023-05-07T03:41:23;2.83;;;1.20;;
60098;SDS011;62818;49.394;8.686;2023-05-07T03:42:26;2.92;;;1.40;;
60098;SDS011;62818;49.394;8.686;2023-05-07T03:43:28;2.30;;;1.58;;
60098;SDS011;62818;49.394;8.686;2023-05-07T03:44:32;1.95;;;1.45;;
60098;SDS011;62818;49.394;8.686;2023-05-07T03:45:36;1.52;;;1.20;;
60098;SDS011;62818;49.394;8.686;2023-05-07T03:46:39;2.38;;;1.30;;
60098;SDS011;62818;49.394;8.686;2023-05-07T03:47:40;4.93;;;1.30;;
60098;SDS011;62818;49.394;8.686;2023-05-07T03:48:43;3.70;;;1.20;;
60098;SDS011;62818;49.394;8.686;2023-05-07T03:49:44;2.75;;;1.70;;
60098;SDS011;62818;49.394;8.686;2023-05-07T03:50:44;3.80;;;1.30;;
60098;SDS011;62818;49.394;8.686;2023-05-07T03:51:45;1.93;;;1.50;;
60098;SDS011;62818;49.394;8.686;2023-05-07T03:52:45;2.03;;;1.40;;
60098;SDS011;62818;49.394;8.686;2023-05-07T03:53:46;2.30;;;1.20;;
60098;SDS011;62818;49.394;8.686;2023-05-07T03:54:46;5.53;;;1.13;;
60098;SDS011;62818;49.394;8.686;2023-05-07T03:55:47;8.03;;;1.60;;
60098;SDS011;62818;49.394;8.686;2023-05-07T03:56:47;2.40;;;1.60;;
60098;SDS011;62818;49.394;8.686;2023-05-07T03:57:48;3.30;;;2.00;;
60098;SDS011;62818;49.394;8.686;2023-05-07T03:58:48;3.37;;;2.40;;
60098;SDS011;62818;49.394;8.686;2023-05-07T03:59:49;5.40;;;2.10;;
60098;SDS011;62818;49.394;8.686;2023-05-07T04:00:49;3.40;;;2.17;;
60098;SDS011;62818;49.394;8.686;2023-05-07T04:01:49;3.07;;;2.10;;
60098;SDS011;62818;49.394;8.686;2023-05-07T04:02:50;2.90;;;1.97;;
60098;SDS011;62818;49.394;8.686;2023-05-07T04:03:50;4.87;;;2.40;;
60098;SDS011;62818;49.394;8.686;2023-05-07T04:04:51;4.73;;;2.07;;
60098;SDS011;62818;49.394;8.686;2023-05-07T04:05:52;3.83;;;2.30;;
60098;SDS011;62818;49.394;8.686;2023-05-07T04:06:52;2.43;;;1.93;;
60098;SDS011;62818;49.394;8.686;2023-05-07T04:07:53;4.77;;;2.33;;
60098;SDS011;62818;49.394;8.686;2023-05-07T04:08:53;4.63;;;2.33;;
60098;SDS011;62818;49.394;8.686;2023-05-07T04:09:54;3.20;;;2.13;;
60098;SDS011;62818;49.394;8.686;2023-05-07T04:10:55;4.87;;;2.20;;
60098;SDS011;62818;49.394;8.686;2023-05-07T04:11:56;4.35;;;2.67;;
60098;SDS011;62818;49.394;8.686;2023-05-07T04:12:57;3.87;;;2.77;;
60098;SDS011;62818;49.394;8.686;2023-05-07T04:13:57;4.07;;;2.67;;
60098;SDS011;62818;49.394;8.686;2023-05-07T04:14:58;2.70;;;2.50;;
60098;SDS011;62818;49.394;8.686;2023-05-07T04:16:00;3.57;;;2.67;;
60098;SDS011;62818;49.394;8.686;2023-05-07T04:17:02;3.38;;;2.45;;
60098;SDS011;62818;49.394;8.686;2023-05-07T04:18:03;5.80;;;2.57;;
60098;SDS011;62818;49.394;8.686;2023-05-07T04:19:04;3.93;;;2.60;;
60098;SDS011;62818;49.394;8.686;2023-05-07T04:20:04;4.37;;;2.73;;
60098;SDS011;62818;49.394;8.686;2023-05-07T04:21:16;4.90;;;2.80;;
60098;SDS011;62818;49.394;8.686;2023-05-07T04:22:20;4.90;;;2.70;;
60098;SDS011;62818;49.394;8.686;2023-05-07T04:23:21;4.17;;;2.50;;
60098;SDS011;62818;49.394;8.686;2023-05-07T04:24:22;3.87;;;2.77;;
60098;SDS011;62818;49.394;8.686;2023-05-07T04:25:22;3.10;;;2.53;;
60098;SDS011;62818;49.394;8.686;2023-05-07T04:26:26;4.63;;;2.50;;
60098;SDS011;62818;49.394;8.686;2023-05-07T04:27:28;5.05;;;2.53;;
60098;SDS011;62818;49.394;8.686;2023-05-07T04:28:28;7.07;;;2.70;;
60098;SDS011;62818;49.394;8.686;2023-05-07T04:29:29;3.43;;;2.70;;
60098;SDS011;62818;49.394;8.686;2023-05-07T04:30:29;3.87;;;2.60;;
60098;SDS011;62818;49.394;8.686;2023-05-07T04:31:30;4.93;;;2.60;;
60098;SDS011;62818;49.394;8.686;2023-05-07T04:32:31;3.13;;;2.58;;
60098;SDS011;62818;49.394;8.686;2023-05-07T04:33:32;4.27;;;2.40;;
60098;SDS011;62818;49.394;8.686;2023-05-07T04:34:33;2.55;;;2.17;;
60098;SDS011;62818;49.394;8.686;2023-05-07T04:35:34;5.27;;;2.27;;
60098;SDS011;62818;49.394;8.686;2023-05-07T04:36:35;3.90;;;2.30;;
60098;SDS011;62818;49.394;8.686;2023-05-07T04:37:38;4.15;;;2.25;;
60098;SDS011;62818;49.394;8.686;2023-05-07T04:38:38;3.73;;;2.20;;
60098;SDS011;62818;49.394;8.686;2023-05-07T04:39:38;3.57;;;2.50;;
60098;SDS011;62818;49.394;8.686;2023-05-07T04:40:39;3.63;;;2.70;;
60098;SDS011;62818;49.394;8.686;2023-05-07T04:41:40;3.70;;;2.83;;
60098;SDS011;62818;49.394;8.686;2023-05-07T04:42:40;3.57;;;2.63;;
60098;SDS011;62818;49.394;8.686;2023-05-07T04:43:41;4.30;;;2.63;;
60098;SDS011;62818;49.394;8.686;2023-05-07T04:44:41;9.17;;;2.97;;
60098;SDS011;62818;49.394;8.686;2023-05-07T04:45:42;3.80;;;2.93;;
60098;SDS011;62818;49.394;8.686;2023-05-07T04:46:42;6.67;;;3.00;;
60098;SDS011;62818;49.394;8.686;2023-05-07T04:47:43;4.53;;;3.27;;
60098;SDS011;62818;49.394;8.686;2023-05-07T04:48:43;6.10;;;2.70;;
60098;SDS011;62818;49.394;8.686;2023-05-07T04:49:44;4.40;;;3.53;;
60098;SDS011;62818;49.394;8.686;2023-05-07T04:50:46;5.23;;;3.33;;
60098;SDS011;62818;49.394;8.686;2023-05-07T04:51:48;5.78;;;3.25;;
60098;SDS011;62818;49.394;8.686;2023-05-07T04:52:48;6.13;;;2.97;;
60098;SDS011;62818;49.394;8.686;2023-05-07T04:53:49;4.67;;;3.10;;
60098;SDS011;62818;49.394;8.686;2023-05-07T04:54:50;6.18;;;3.35;;
60098;SDS011;62818;49.394;8.686;2023-05-07T04:55:56;6.63;;;2.93;;
60098;SDS011;62818;49.394;8.686;2023-05-07T04:56:58;7.07;;;3.30;;
60098;SDS011;62818;49.394;8.686;2023-05-07T04:57:58;5.77;;;3.40;;
60098;SDS011;62818;49.394;8.686;2023-05-07T04:59:01;6.93;;;3.22;;
60098;SDS011;62818;49.394;8.686;2023-05-07T05:00:01;6.50;;;3.20;;
60098;SDS011;62818;49.394;8.686;2023-05-07T05:01:04;5.65;;;3.03;;
60098;SDS011;62818;49.394;8.686;2023-05-07T05:02:05;4.00;;;3.22;;
60098;SDS011;62818;49.394;8.686;2023-05-07T05:03:08;4.13;;;2.90;;
60098;SDS011;62818;49.394;8.686;2023-05-07T05:04:09;4.47;;;2.88;;
60098;SDS011;62818;49.394;8.686;2023-05-07T05:05:10;5.43;;;2.97;;
60098;SDS011;62818;49.394;8.686;2023-05-07T05:06:11;7.03;;;3.47;;
60098;SDS011;62818;49.394;8.686;2023-05-07T05:07:11;6.27;;;3.50;;
60098;SDS011;62818;49.394;8.686;2023-05-07T05:08:12;3.37;;;3.00;;
60098;SDS011;62818;49.394;8.686;2023-05-07T05:09:12;7.50;;;3.40;;
60098;SDS011;62818;49.394;8.686;2023-05-07T05:10:13;6.77;;;3.30;;
60098;SDS011;62818;49.394;8.686;2023-05-07T05:11:13;5.83;;;3.33;;
60098;SDS011;62818;49.394;8.686;2023-05-07T05:12:14;6.03;;;2.92;;
60098;SDS011;62818;49.394;8.686;2023-05-07T05:13:15;7.43;;;2.77;;
60098;SDS011;62818;49.394;8.686;2023-05-07T05:14:16;6.27;;;2.97;;
60098;SDS011;62818;49.394;8.686;2023-05-07T05:15:16;7.30;;;2.80;;
60098;SDS011;62818;49.394;8.686;2023-05-07T05:16:16;3.43;;;3.00;;
60098;SDS011;62818;49.394;8.686;2023-05-07T05:17:17;4.73;;;2.60;;
60098;SDS011;62818;49.394;8.686;2023-05-07T05:18:17;5.57;;;2.63;;
60098;SDS011;62818;49.394;8.686;2023-05-07T05:19:18;6.23;;;3.00;;
60098;SDS011;62818;49.394;8.686;2023-05-07T05:20:21;4.28;;;2.83;;
60098;SDS011;62818;49.394;8.686;2023-05-07T05:21:22;5.63;;;2.80;;
60098;SDS011;62818;49.394;8.686;2023-05-07T05:22:22;4.27;;;2.60;;
60098;SDS011;62818;49.394;8.686;2023-05-07T05:23:23;4.03;;;2.50;;
60098;SDS011;62818;49.394;8.686;2023-05-07T05:24:23;3.73;;;2.63;;
60098;SDS011;62818;49.394;8.686;2023-05-07T05:25:24;2.70;;;2.27;;
60098;SDS011;62818;49.394;8.686;2023-05-07T05:26:27;5.97;;;2.80;;
60098;SDS011;62818;49.394;8.686;2023-05-07T05:27:28;4.68;;;2.30;;
60098;SDS011;62818;49.394;8.686;2023-05-07T05:29:30;4.85;;;2.15;;
60098;SDS011;62818;49.394;8.686;2023-05-07T05:31:31;4.80;;;2.58;;
60098;SDS011;62818;49.394;8.686;2023-05-07T05:32:33;7.50;;;2.58;;
60098;SDS011;62818;49.394;8.686;2023-05-07T05:33:34;2.63;;;2.27;;
60098;SDS011;62818;49.394;8.686;2023-05-07T05:34:34;2.92;;;2.28;;
60098;SDS011;62818;49.394;8.686;2023-05-07T05:35:35;4.73;;;2.67;;
60098;SDS011;62818;49.394;8.686;2023-05-07T05:36:36;4.90;;;2.30;;
60098;SDS011;62818;49.394;8.686;2023-05-07T05:37:36;2.60;;;2.17;;
60098;SDS011;62818;49.394;8.686;2023-05-07T05:38:37;3.30;;;2.53;;
60098;SDS011;62818;49.394;8.686;2023-05-07T05:39:37;4.70;;;2.63;;
60098;SDS011;62818;49.394;8.686;2023-05-07T05:40:37;3.33;;;2.00;;
60098;SDS011;62818;49.394;8.686;2023-05-07T05:41:38;3.80;;;2.40;;
60098;SDS011;62818;49.394;8.686;2023-05-07T05:42:38;4.53;;;2.40;;
60098;SDS011;62818;49.394;8.686;2023-05-07T05:43:39;2.70;;;2.07;;
60098;SDS011;62818;49.394;8.686;2023-05-07T05:44:39;3.70;;;2.57;;
60098;SDS011;62818;49.394;8.686;2023-05-07T05:45:40;5.17;;;2.53;;
60098;SDS011;62818;49.394;8.686;2023-05-07T05:46:40;2.40;;;2.07;;
60098;SDS011;62818;49.394;8.686;2023-05-07T05:47:41;3.63;;;1.97;;
60098;SDS011;62818;49.394;8.686;2023-05-07T05:48:41;2.77;;;2.30;;
60098;SDS011;62818;49.394;8.686;2023-05-07T05:49:42;3.47;;;1.97;;
60098;SDS011;62818;49.394;8.686;2023-05-07T05:50:43;2.40;;;2.20;;
60098;SDS011;62818;49.394;8.686;2023-05-07T05:51:43;2.07;;;1.87;;
60098;SDS011;62818;49.394;8.686;2023-05-07T05:52:45;3.47;;;1.95;;
60098;SDS011;62818;49.394;8.686;2023-05-07T05:53:45;3.90;;;2.00;;
60098;SDS011;62818;49.394;8.686;2023-05-07T05:54:45;3.57;;;2.20;;
60098;SDS011;62818;49.394;8.686;2023-05-07T05:55:46;2.93;;;2.20;;
60098;SDS011;62818;49.394;8.686;2023-05-07T05:56:46;2.37;;;1.90;;
60098;SDS011;62818;49.394;8.686;2023-05-07T05:57:47;3.95;;;2.10;;
60098;SDS011;62818;49.394;8.686;2023-05-07T05:58:48;6.67;;;2.63;;
60098;SDS011;62818;49.394;8.686;2023-05-07T05:59:48;4.53;;;2.60;;
60098;SDS011;62818;49.394;8.686;2023-05-07T06:00:49;2.70;;;2.40;;
60098;SDS011;62818;49.394;8.686;2023-05-07T06:01:52;2.47;;;2.10;;
60098;SDS011;62818;49.394;8.686;2023-05-07T06:02:52;2.73;;;2.20;;
60098;SDS011;62818;49.394;8.686;2023-05-07T06:03:53;4.77;;;2.30;;
60098;SDS011;62818;49.394;8.686;2023-05-07T06:04:53;6.37;;;2.13;;
60098;SDS011;62818;49.394;8.686;2023-05-07T06:05:54;3.63;;;2.47;;
60098;SDS011;62818;49.394;8.686;2023-05-07T06:06:54;4.17;;;2.00;;
60098;SDS011;62818;49.394;8.686;2023-05-07T06:07:55;3.93;;;1.80;;
60098;SDS011;62818;49.394;8.686;2023-05-07T06:08:57;4.35;;;2.10;;
60098;SDS011;62818;49.394;8.686;2023-05-07T06:09:57;2.30;;;1.60;;
60098;SDS011;62818;49.394;8.686;2023-05-07T06:10:58;5.90;;;1.73;;
60098;SDS011;62818;49.394;8.686;2023-05-07T06:13:00;1.63;;;1.52;;
60098;SDS011;62818;49.394;8.686;2023-05-07T06:14:00;4.47;;;1.80;;
60098;SDS011;62818;49.394;8.686;2023-05-07T06:15:01;2.33;;;1.50;;
60098;SDS011;62818;49.394;8.686;2023-05-07T06:16:01;2.57;;;1.60;;